Time;durP1;ratioP1;P1;durP2;ratioP2;P2;SDS_P1;SDS_P2;PMS_P1;PMS_P2;Temp;Humidity;BMP_temperature;BMP_pressure;BME280_temperature;BME280_humidity;BME280_pressure;Samples;Min_cycle;Max_cycle;Signal;HPM_P1;HPM_P2
2022/12/22 03:29:12;;;;;;;0.70;0.60;;;;;;;;;;10202017;28;20161;-75
2022/12/22 03:34:08;;;;;;;0.80;0.70;;;;;;;;;;10202411;28;20177;-75
2022/12/22 03:39:04;;;;;;;0.60;0.53;;;;;;;;;;10202242;28;20207;-75
2022/12/22 03:49:14;;;;;;;1.07;0.70;;;;;;;;;;10201717;28;20164;-75
2022/12/22 03:54:10;;;;;;;0.70;0.60;;;;;;;;;;10201668;28;20265;-75
2022/12/22 03:59:06;;;;;;;0.60;0.50;;;;;;;;;;10201946;28;20686;-75
2022/12/22 04:04:02;;;;;;;0.80;0.70;;;;;;;;;;10205417;28;20184;-75
2022/12/22 04:08:57;;;;;;;0.70;0.60;;;;;;;;;;10209526;28;20177;-75
2022/12/22 04:13:53;;;;;;;0.60;0.60;;;;;;;;;;10208949;28;20192;-75
2022/12/22 04:18:49;;;;;;;0.67;0.60;;;;;;;;;;10209127;28;20206;-75
2022/12/22 04:23:45;;;;;;;0.80;0.70;;;;;;;;;;10208953;28;20765;-75
2022/12/22 04:28:41;;;;;;;0.60;0.60;;;;;;;;;;10209101;28;20177;-75
2022/12/22 04:33:37;;;;;;;0.70;0.60;;;;;;;;;;10208714;28;20181;-75
2022/12/22 04:38:33;;;;;;;0.63;0.57;;;;;;;;;;10207750;28;20260;-75
2022/12/22 04:43:29;;;;;;;0.80;0.60;;;;;;;;;;10208518;28;20204;-75
2022/12/22 04:48:24;;;;;;;0.60;0.50;;;;;;;;;;10208096;28;20170;-75
2022/12/22 04:53:20;;;;;;;0.70;0.60;;;;;;;;;;10207328;28;20183;-75
2022/12/22 04:58:16;;;;;;;0.60;0.57;;;;;;;;;;10208099;28;20229;-75
2022/12/22 05:03:12;;;;;;;0.60;0.60;;;;;;;;;;10207001;28;20176;-75
2022/12/22 05:08:08;;;;;;;1.00;0.70;;;;;;;;;;10207322;28;20180;-75
2022/12/22 05:13:04;;;;;;;0.70;0.60;;;;;;;;;;10207117;28;20184;-75
2022/12/22 05:18:00;;;;;;;0.70;0.60;;;;;;;;;;10205944;28;20621;-75
2022/12/22 05:22:56;;;;;;;1.17;0.70;;;;;;;;;;10206709;28;20185;-75
2022/12/22 05:27:52;;;;;;;0.73;0.60;;;;;;;;;;10206927;28;20602;-75
2022/12/22 05:32:48;;;;;;;0.60;0.60;;;;;;;;;;10206383;28;20256;-75
2022/12/22 05:37:43;;;;;;;0.50;0.50;;;;;;;;;;10206035;28;20554;-75
2022/12/22 05:42:39;;;;;;;0.70;0.70;;;;;;;;;;10205973;28;20178;-75
2022/12/22 05:47:35;;;;;;;0.60;0.50;;;;;;;;;;10205805;28;20534;-75
2022/12/22 05:52:31;;;;;;;0.63;0.53;;;;;;;;;;10205635;28;20182;-75
2022/12/22 05:57:27;;;;;;;1.77;0.50;;;;;;;;;;10204720;28;20231;-75
2022/12/22 06:02:23;;;;;;;0.60;0.50;;;;;;;;;;10204809;28;20631;-75
2022/12/22 06:07:19;;;;;;;0.70;0.70;;;;;;;;;;10204501;28;20174;-75
2022/12/22 06:12:15;;;;;;;0.60;0.50;;;;;;;;;;10204901;28;20170;-75
2022/12/22 06:17:11;;;;;;;0.60;0.50;;;;;;;;;;10204788;28;20686;-75
2022/12/22 06:22:06;;;;;;;0.80;0.57;;;;;;;;;;10204499;28;20268;-75
2022/12/22 06:27:02;;;;;;;0.80;0.50;;;;;;;;;;10204002;28;20201;-75
2022/12/22 06:31:58;;;;;;;0.60;0.50;;;;;;;;;;10204209;28;20223;-74
2022/12/22 06:36:54;;;;;;;0.70;0.70;;;;;;;;;;10200194;28;20684;-74
2022/12/22 06:47:04;;;;;;;0.70;0.50;;;;;;;;;;10200406;28;20174;-75
2022/12/22 06:52:00;;;;;;;0.63;0.50;;;;;;;;;;10203403;28;20595;-70
2022/12/22 06:56:56;;;;;;;0.60;0.50;;;;;;;;;;10203151;28;20232;-70
2022/12/22 07:01:52;;;;;;;0.60;0.50;;;;;;;;;;10203191;28;20208;-78
2022/12/22 07:06:48;;;;;;;0.60;0.50;;;;;;;;;;10203149;28;20176;-78
2022/12/22 07:11:44;;;;;;;0.70;0.50;;;;;;;;;;10203012;28;20228;-81
2022/12/22 07:16:40;;;;;;;0.80;0.60;;;;;;;;;;10202843;28;20630;-82
2022/12/22 07:21:36;;;;;;;0.60;0.50;;;;;;;;;;10202779;28;20202;-77
2022/12/22 07:26:31;;;;;;;4.13;0.70;;;;;;;;;;10202585;28;20181;-78
2022/12/22 07:31:27;;;;;;;0.60;0.60;;;;;;;;;;10202488;28;20583;-79
2022/12/22 07:36:23;;;;;;;1.63;0.63;;;;;;;;;;10202312;28;20172;-75
2022/12/22 07:46:33;;;;;;;1.43;0.60;;;;;;;;;;10210156;28;20579;-78
2022/12/22 07:51:29;;;;;;;0.70;0.60;;;;;;;;;;10210259;28;20205;-73
2022/12/22 07:56:25;;;;;;;0.60;0.57;;;;;;;;;;10209417;28;20660;-76
2022/12/22 08:01:21;;;;;;;0.70;0.50;;;;;;;;;;10209781;28;20300;-75
2022/12/22 08:06:17;;;;;;;0.80;0.60;;;;;;;;;;10209727;28;20178;-75
2022/12/22 08:11:13;;;;;;;1.23;1.13;;;;;;;;;;10209556;28;20193;-76
2022/12/22 08:16:09;;;;;;;0.60;0.50;;;;;;;;;;10207444;28;20194;-75
2022/12/22 08:21:04;;;;;;;0.70;0.60;;;;;;;;;;10208856;28;20206;-76
2022/12/22 08:26:00;;;;;;;0.80;0.70;;;;;;;;;;10209881;28;20550;-76
2022/12/22 08:30:56;;;;;;;0.97;0.70;;;;;;;;;;10207425;28;20178;-76
2022/12/22 08:35:52;;;;;;;1.63;0.77;;;;;;;;;;10208713;28;20182;-76
2022/12/22 08:40:48;;;;;;;1.43;0.60;;;;;;;;;;10208324;28;20207;-76
2022/12/22 08:45:44;;;;;;;1.33;0.97;;;;;;;;;;10207738;28;20190;-75
2022/12/22 08:50:40;;;;;;;1.67;0.60;;;;;;;;;;10208000;28;20529;-76
2022/12/22 08:55:36;;;;;;;1.23;0.60;;;;;;;;;;10208093;28;20218;-76
2022/12/22 09:00:32;;;;;;;0.70;0.60;;;;;;;;;;10207551;28;20199;-73
2022/12/22 09:05:28;;;;;;;0.70;0.60;;;;;;;;;;10207654;28;20577;-73
2022/12/22 09:10:24;;;;;;;0.80;0.70;;;;;;;;;;10207315;28;20606;-73
2022/12/22 09:15:19;;;;;;;0.97;0.60;;;;;;;;;;10207247;28;20174;-72
2022/12/22 09:20:15;;;;;;;0.60;0.60;;;;;;;;;;10206295;28;20234;-72
2022/12/22 09:25:13;;;;;;;1.00;0.80;;;;;;;;;;10206742;28;20264;-73
2022/12/22 09:30:08;;;;;;;1.00;0.70;;;;;;;;;;10206731;28;20178;-73
2022/12/22 09:35:05;;;;;;;2.13;0.87;;;;;;;;;;10206356;28;20193;-73
2022/12/22 09:40:01;;;;;;;0.63;0.60;;;;;;;;;;10205942;28;20198;-73
2022/12/22 09:44:56;;;;;;;1.87;0.80;;;;;;;;;;10205337;28;20182;-74
2022/12/22 09:49:52;;;;;;;1.10;0.70;;;;;;;;;;10205828;28;20631;-76
2022/12/22 09:54:48;;;;;;;0.73;0.73;;;;;;;;;;10204349;28;20248;-76
2022/12/22 09:59:44;;;;;;;2.00;0.90;;;;;;;;;;10204325;28;20210;-76
2022/12/22 10:04:40;;;;;;;0.70;0.70;;;;;;;;;;10205041;28;20178;-75
2022/12/22 10:09:36;;;;;;;1.10;1.00;;;;;;;;;;10204998;28;20243;-75
2022/12/22 10:14:32;;;;;;;1.03;0.90;;;;;;;;;;10204404;28;20179;-75
2022/12/22 10:19:28;;;;;;;1.33;1.00;;;;;;;;;;10204143;28;20208;-75
2022/12/22 10:24:23;;;;;;;1.00;0.70;;;;;;;;;;10204456;28;20197;-75
2022/12/22 10:29:19;;;;;;;1.60;0.90;;;;;;;;;;10203660;28;20221;-75
2022/12/22 10:34:15;;;;;;;0.80;0.80;;;;;;;;;;10204172;28;20275;-75
2022/12/22 10:39:11;;;;;;;1.20;0.90;;;;;;;;;;10203902;28;20655;-75
2022/12/22 10:44:07;;;;;;;1.20;0.90;;;;;;;;;;10203964;28;20174;-80
2022/12/22 10:49:03;;;;;;;1.30;0.87;;;;;;;;;;10203091;28;20174;-80
2022/12/22 10:54:01;;;;;;;1.40;1.20;;;;;;;;;;10203404;28;20184;-78
2022/12/22 10:58:57;;;;;;;4.60;1.50;;;;;;;;;;10203267;28;20256;-81
2022/12/22 11:03:53;;;;;;;1.03;0.97;;;;;;;;;;10203072;28;20170;-82
2022/12/22 11:08:49;;;;;;;1.40;0.93;;;;;;;;;;10202755;28;20651;-81
2022/12/22 11:13:45;;;;;;;1.20;1.00;;;;;;;;;;10202033;28;20181;-75
2022/12/22 11:18:41;;;;;;;1.10;0.83;;;;;;;;;;10202357;28;20190;-76
2022/12/22 11:23:37;;;;;;;1.37;1.27;;;;;;;;;;10202609;28;20178;-77
2022/12/22 11:28:32;;;;;;;2.13;1.50;;;;;;;;;;10202905;28;20169;-76
2022/12/22 11:33:28;;;;;;;1.60;1.20;;;;;;;;;;10202257;28;20554;-80
2022/12/22 11:38:25;;;;;;;1.57;1.47;;;;;;;;;;10202224;28;20752;-78
2022/12/22 11:43:21;;;;;;;1.23;1.10;;;;;;;;;;10201942;28;20169;-77
2022/12/22 11:48:17;;;;;;;1.30;1.20;;;;;;;;;;10201669;28;20260;-77
2022/12/22 11:53:14;;;;;;;2.03;1.80;;;;;;;;;;10201837;28;20193;-77
2022/12/22 11:58:10;;;;;;;1.27;1.17;;;;;;;;;;10201031;28;20232;-78
2022/12/22 12:03:06;;;;;;;1.40;1.30;;;;;;;;;;10200638;28;20178;-77
2022/12/22 12:08:02;;;;;;;1.57;1.47;;;;;;;;;;10201202;28;20166;-76
2022/12/22 12:12:58;;;;;;;1.70;1.47;;;;;;;;;;10202234;28;20705;-75
2022/12/22 12:17:54;;;;;;;1.63;1.53;;;;;;;;;;10201525;28;20208;-75
2022/12/22 12:22:50;;;;;;;1.50;1.40;;;;;;;;;;10201639;28;20170;-76
2022/12/22 12:27:46;;;;;;;1.70;1.60;;;;;;;;;;10209010;28;20530;-76
2022/12/22 12:32:42;;;;;;;1.67;1.57;;;;;;;;;;10208822;28;20177;-77
2022/12/22 12:37:38;;;;;;;2.73;1.80;;;;;;;;;;10208658;28;20649;-80
2022/12/22 12:42:33;;;;;;;3.20;1.70;;;18.30;52.80;;;;;;10208166;28;20216;-82
2022/12/22 12:47:28;;;;;;;3.53;1.87;;;18.30;53.70;;;;;;10208204;28;20529;-77
2022/12/22 12:52:24;;;;;;;1.70;1.60;;;18.00;53.70;;;;;;10207940;28;20310;-73
2022/12/22 12:57:19;;;;;;;6.67;2.00;;;17.90;53.70;;;;;;10207892;28;20781;-73
2022/12/22 13:02:15;;;;;;;2.00;1.60;;;18.00;53.80;;;;;;10207339;28;20178;-79
2022/12/22 13:07:10;;;;;;;2.03;1.70;;;17.90;53.60;;;;;;10207496;28;20176;-76
2022/12/22 13:12:05;;;;;;;3.73;1.73;;;17.90;53.60;;;;;;10207335;28;20265;-78
2022/12/22 13:17:01;;;;;;;1.60;1.50;;;17.90;53.60;;;;;;10207116;28;20639;-77
2022/12/22 13:21:56;;;;;;;2.00;1.80;;;17.90;53.60;;;;;;10206300;28;20200;-77
2022/12/22 13:26:53;;;;;;;2.10;2.00;;;17.90;53.40;;;;;;10206674;28;20628;-79
2022/12/22 13:31:49;;;;;;;2.10;1.80;;;17.90;53.50;;;;;;10206339;28;20184;-75
2022/12/22 13:36:44;;;;;;;2.00;1.90;;;18.00;53.50;;;;;;10205477;28;20184;-75
2022/12/22 13:41:40;;;;;;;3.53;2.10;;;17.90;53.50;;;;;;10206509;28;20197;-76
2022/12/22 13:46:35;;;;;;;3.10;2.50;;;17.90;53.50;;;;;;10205798;28;20670;-77
2022/12/22 13:51:31;;;;;;;3.43;3.13;;;17.90;53.40;;;;;;10205795;28;20223;-76
2022/12/22 13:56:26;;;;;;;2.60;2.40;;;17.90;53.30;;;;;;10205630;28;20622;-75
2022/12/22 14:01:22;;;;;;;2.97;2.77;;;17.90;53.30;;;;;;10205061;28;20259;-75
2022/12/22 14:06:17;;;;;;;3.80;2.17;;;17.90;53.30;;;;;;10204987;28;20175;-75
2022/12/22 14:11:13;;;;;;;2.90;2.70;;;;;;;;;;10205266;28;20189;-79
2022/12/22 14:16:09;;;;;;;3.43;2.33;;;;;;;;;;10203887;28;20176;-77
2022/12/22 14:21:05;;;;;;;2.43;2.10;;;;;;;;;;10204374;28;20198;-75
2022/12/22 14:26:01;;;;;;;2.13;1.93;;;;;;;;;;10204370;28;20192;-75
2022/12/22 14:30:57;;;;;;;3.33;2.50;;;;;;;;;;10204066;28;20190;-75
2022/12/22 14:35:53;;;;;;;3.10;2.30;;;;;;;;;;10203304;28;20173;-75
2022/12/22 14:40:49;;;;;;;2.57;2.20;;;;;;;;;;10203294;28;20200;-75
2022/12/22 14:45:45;;;;;;;2.30;2.10;;;;;;;;;;10202456;28;20239;-78
2022/12/22 14:50:41;;;;;;;2.00;1.90;;;;;;;;;;10203429;28;20176;-77
2022/12/22 14:55:37;;;;;;;3.83;1.93;;;;;;;;;;10203175;28;20221;-77
2022/12/22 15:00:33;;;;;;;2.80;2.57;;;;;;;;;;10202287;28;20202;-75
2022/12/22 15:05:30;;;;;;;3.50;2.20;;;;;;;;;;10200852;28;20252;-77
2022/12/22 15:10:26;;;;;;;4.70;2.13;;;;;;;;;;10202508;28;20182;-76
2022/12/22 15:15:22;;;;;;;2.10;1.83;;;;;;;;;;10201778;28;20178;-75
2022/12/22 15:20:18;;;;;;;4.30;2.60;;;;;;;;;;10202469;28;20194;-77
2022/12/22 15:25:14;;;;;;;2.77;2.33;;;;;;;;;;10202669;28;20196;-72
2022/12/22 15:30:09;;;;;;;2.40;2.20;;;;;;;;;;10200579;28;20174;-73
2022/12/22 15:35:05;;;;;;;4.50;2.80;;;;;;;;;;10202184;28;20173;-74
2022/12/22 15:40:01;;;;;;;3.20;2.57;;;;;;;;;;10202355;28;20198;-75
2022/12/22 15:44:57;;;;;;;3.47;2.47;;;;;;;;;;10201975;28;20174;-76
2022/12/22 15:49:53;;;;;;;5.93;3.50;;;;;;;;;;10201257;28;20166;-77
2022/12/22 15:54:49;;;;;;;2.90;2.43;;;;;;;;;;10201731;28;20221;-74
2022/12/22 15:59:45;;;;;;;3.50;3.00;;;;;;;;;;10204680;28;20208;-75
2022/12/22 16:04:41;;;;;;;3.73;2.67;;;;;;;;;;10209531;28;20174;-76
2022/12/22 16:09:37;;;;;;;4.97;2.90;;;;;;;;;;10209417;28;20176;-76
2022/12/22 16:14:33;;;;;;;2.50;2.30;;;;;;;;;;10209241;28;20607;-76
2022/12/22 16:19:29;;;;;;;3.83;2.60;;;;;;;;;;10208445;28;20287;-76
2022/12/22 16:24:25;;;;;;;4.27;2.97;;;;;;;;;;10209525;28;20184;-76
2022/12/22 16:29:21;;;;;;;6.47;2.43;;;;;;;;;;10208204;28;20620;-76
2022/12/22 16:34:17;;;;;;;4.53;2.53;;;;;;;;;;10208147;28;20170;-77
2022/12/22 16:39:12;;;;;;;4.10;2.57;;;;;;;;;;10208971;28;20198;-72
2022/12/22 16:44:08;;;;;;;6.10;2.47;;;;;;;;;;10208099;28;20180;-72
2022/12/22 16:49:04;;;;;;;3.37;2.77;;;;;;;;;;10208024;28;20175;-69
2022/12/22 16:54:00;;;;;;;5.43;2.37;;;;;;;;;;10207624;28;20181;-68
2022/12/22 16:58:56;;;;;;;3.10;2.27;;;;;;;;;;10207492;28;20205;-68
2022/12/22 17:03:52;;;;;;;2.77;2.27;;;;;;;;;;10206848;28;20188;-76
2022/12/22 17:08:48;;;;;;;2.53;2.03;;;;;;;;;;10207166;28;20177;-71
2022/12/22 17:13:44;;;;;;;2.93;2.20;;;;;;;;;;10205143;28;20181;-71
2022/12/22 17:18:40;;;;;;;2.30;2.10;;;;;;;;;;10206740;28;20595;-71
2022/12/22 17:23:36;;;;;;;2.20;2.10;;;;;;;;;;10206200;28;20628;-73
2022/12/22 17:28:32;;;;;;;2.40;2.20;;;;;;;;;;10207240;28;20173;-74
2022/12/22 17:33:28;;;;;;;3.10;2.47;;;;;;;;;;10206304;28;20178;-72
2022/12/22 17:38:25;;;;;;;2.30;2.10;;;;;;;;;;10206122;28;20200;-69
2022/12/22 17:43:21;;;;;;;6.60;2.20;;;;;;;;;;10205839;28;20185;-69
2022/12/22 17:48:18;;;;;;;7.07;2.27;;;;;;;;;;10205712;28;20176;-69
2022/12/22 17:53:14;;;;;;;2.90;1.87;;;;;;;;;;10205541;28;20174;-69
2022/12/22 17:58:10;;;;;;;23.47;7.60;;;;;;;;;;10205569;28;20226;-69
2022/12/22 18:03:06;;;;;;;34.20;12.30;;;;;;;;;;10205242;28;20557;-71
2022/12/22 18:08:02;;;;;;;40.20;12.47;;;;;;;;;;10205091;28;20612;-75
2022/12/22 18:12:58;;;;;;;34.17;13.27;;;;;;;;;;10204808;28;20171;-73
2022/12/22 18:17:54;;;;;;;34.10;11.90;;;;;;;;;;10204660;28;20267;-74
2022/12/22 18:22:50;;;;;;;26.53;12.20;;;;;;;;;;10204001;28;20627;-71
2022/12/22 18:27:46;;;;;;;27.40;9.93;;;;;;;;;;10204321;28;20199;-72
2022/12/22 18:32:42;;;;;;;26.23;9.97;;;;;;;;;;10203502;28;20654;-72
2022/12/22 18:37:38;;;;;;;23.47;10.63;;;;;;;;;;10203793;28;20173;-72
2022/12/22 18:42:33;;;;;;;24.60;10.20;;;;;;;;;;10203792;28;20171;-73
2022/12/22 18:47:29;;;;;;;21.13;8.90;;;;;;;;;;10203526;28;20226;-76
2022/12/22 18:52:25;;;;;;;20.50;8.00;;;;;;;;;;10202757;28;20185;-72
2022/12/22 18:57:21;;;;;;;21.73;9.77;;;;;;;;;;10203515;28;20229;-74
2022/12/22 19:02:17;;;;;;;15.30;7.90;;;;;;;;;;10202491;28;20218;-74
2022/12/22 19:07:14;;;;;;;16.90;7.93;;;;;;;;;;10202285;28;20204;-74
2022/12/22 19:12:10;;;;;;;18.53;7.93;;;;;;;;;;10202841;28;20166;-74
2022/12/22 19:17:06;;;;;;;14.37;7.20;;;;;;;;;;10202317;28;20580;-73
2022/12/22 19:22:02;;;;;;;13.70;8.13;;;;;;;;;;10202507;28;20194;-74
2022/12/22 19:26:58;;;;;;;18.80;7.70;;;;;;;;;;10202415;28;20181;-74
2022/12/22 19:31:54;;;;;;;18.90;7.77;;;;;;;;;;10202437;28;20181;-74
2022/12/22 19:36:50;;;;;;;17.50;7.73;;;;;;;;;;10200449;28;20623;-74
2022/12/22 19:41:46;;;;;;;13.80;6.43;;;;;;;;;;10201986;28;20196;-74
2022/12/22 19:46:42;;;;;;;16.20;7.43;;;;;;;;;;10201975;28;20178;-74
2022/12/22 19:51:38;;;;;;;9.90;6.07;;;;;;;;;;10202537;28;20177;-74
2022/12/22 19:56:35;;;;;;;12.47;5.90;;;;;;;;;;10201898;28;20229;-73
2022/12/22 20:01:31;;;;;;;14.17;6.07;;;;;;;;;;10201729;28;20720;-71
2022/12/22 20:06:27;;;;;;;9.53;5.47;;;;;;;;;;10201632;28;20178;-70
2022/12/22 20:11:22;;;;;;;14.10;5.30;;;;;;;;;;10200901;28;20174;-71
2022/12/22 20:16:18;;;;;;;7.93;4.80;;;;;;;;;;10201900;28;20174;-71
2022/12/22 20:21:15;;;;;;;10.33;5.10;;;;;;;;;;10200718;28;20195;-71
2022/12/22 20:26:11;;;;;;;9.33;4.40;;;;;;;;;;10200852;28;20188;-71
2022/12/22 20:31:07;;;;;;;9.03;4.87;;;;;;;;;;10201248;28;20180;-73
2022/12/22 20:36:03;;;;;;;8.23;4.33;;;;;;;;;;10201641;28;20499;-73
2022/12/22 20:40:58;;;;;;;7.03;4.10;;;;;;;;;;10201077;28;20712;-72
2022/12/22 20:45:54;;;;;;;8.13;4.10;;;;;;;;;;10204048;28;20174;-73
2022/12/22 20:50:50;;;;;;;8.50;5.00;;;;;;;;;;10207935;28;20180;-73
2022/12/22 20:55:46;;;;;;;9.10;4.77;;;;;;;;;;10207575;28;20232;-73
2022/12/22 21:00:42;;;;;;;7.47;4.13;;;;;;;;;;10207493;28;20709;-73
2022/12/22 21:05:38;;;;;;;10.67;4.23;;;;;;;;;;10207423;28;20192;-73
2022/12/22 21:10:34;;;;;;;8.23;4.75;;;;;;;;;;10203033;28;20419;-72
2022/12/22 21:15:30;;;;;;;5.67;3.80;;;;;;;;;;10206444;28;20650;-73
2022/12/22 21:20:26;;;;;;;10.40;4.23;;;;;;;;;;10205949;28;20191;-74
2022/12/22 21:26:09;;;;;;;;;;;;;;;;;;10285274;27;10352;-73
2022/12/22 21:31:05;;;;;;;;;;;;;;;;;;10278069;28;10092;-72
2022/12/22 21:37:12;;;;;;;;;;;;;;;;;;10298859;27;10226;-74
2022/12/22 21:42:07;;;;;;;;;;;20.60;88.40;;;;;;10233976;28;12103;-73
2022/12/22 21:47:03;;;;;;;;;;;19.90;50.30;;;;;;10239345;28;937;-73
2022/12/22 21:51:58;;;;;;;;;;;18.40;53.30;;;;;;10237889;28;978;-73
2022/12/22 21:56:53;;;;;;;;;;;18.00;54.30;;;;;;10238137;28;1918;-74
2022/12/22 22:01:51;;;;;;;;;;;17.90;54.60;;;;;;10238052;28;764;-73
2022/12/22 22:06:46;;;;;;;;;;;17.90;54.70;;;;;;10238639;28;779;-73
2022/12/22 22:16:56;;;;;;;;;;;17.80;54.80;;;;;;10237627;28;1967;-72
2022/12/22 22:21:51;;;;;;;;;;;17.70;54.70;;;;;;10237447;28;760;-72
2022/12/22 22:26:49;;;;;;;;;;;17.70;54.70;;;;;;10237809;28;873;-71
2022/12/22 22:31:44;;;;;;;;;;;17.60;54.70;;;;;;10237078;28;874;-71
2022/12/22 22:36:39;;;;;;;;;;;17.60;54.80;;;;;;10273111;28;1961;-71
2022/12/22 22:41:35;;;;;;;;;;;17.60;54.70;;;;;;10277715;28;801;-71
2022/12/22 22:46:30;;;;;;;;;;;17.60;54.70;;;;;;10261259;28;917;-71
2022/12/22 22:51:26;;;;;;;;;;;17.70;54.70;;;;;;10249794;28;1034;-71
2022/12/22 22:56:21;;;;;;;;;;;17.60;54.60;;;;;;10249434;28;1987;-71
2022/12/22 23:01:17;;;;;;;;;;;17.70;54.60;;;;;;10249958;28;760;-71
2022/12/22 23:06:12;;;;;;;;;;;17.70;54.60;;;;;;10249629;28;1081;-71
2022/12/22 23:11:08;;;;;;;;;;;17.70;54.60;;;;;;10249222;28;957;-71
2022/12/22 23:16:03;;;;;;;;;;;17.60;54.60;;;;;;10248777;28;1923;-71
2022/12/22 23:20:58;;;;;;;;;;;17.60;54.60;;;;;;10248993;28;862;-71
2022/12/22 23:25:54;;;;;;;;;;;17.60;54.50;;;;;;10248731;28;825;-72
2022/12/22 23:30:49;;;;;;;;;;;17.60;54.40;;;;;;10248261;28;889;-71
2022/12/22 23:35:44;;;;;;;;;;;17.60;54.40;;;;;;10247405;28;1958;-72
2022/12/22 23:40:40;;;;;;;;;;;17.60;54.40;;;;;;10247305;28;1231;-72
2022/12/22 23:45:35;;;;;;;;;;;17.60;54.40;;;;;;10247743;28;775;-72
2022/12/22 23:50:30;;;;;;;;;;;17.60;54.40;;;;;;10247513;28;913;-72
2022/12/22 23:55:26;;;;;;;;;;;17.70;54.40;;;;;;10247781;28;1972;-72
